createdAt,value
2022-09-30T00:00:01.550Z,7.02
2022-09-30T00:05:02.128Z,6.98
2022-09-30T00:10:01.266Z,6.97
2022-09-30T00:15:01.922Z,6.96
2022-09-30T00:20:01.938Z,6.79
2022-09-30T00:25:02.104Z,6.68
2022-09-30T00:30:01.579Z,6.56
2022-09-30T00:35:01.314Z,6.64
2022-09-30T00:40:01.803Z,6.86
2022-09-30T00:45:01.733Z,6.88
2022-09-30T00:50:01.891Z,6.74
2022-09-30T00:55:01.713Z,6.65
2022-09-30T01:00:01.446Z,6.65
2022-09-30T01:05:01.564Z,6.58
2022-09-30T01:10:02.073Z,6.43
2022-09-30T01:15:02.205Z,6.24
2022-09-30T01:20:02.021Z,6.17
2022-09-30T01:25:02.221Z,6.05
2022-09-30T01:30:01.554Z,6
2022-09-30T01:35:01.335Z,5.7
2022-09-30T01:40:01.314Z,5.71
2022-09-30T01:45:02.110Z,5.66
2022-09-30T01:50:02.047Z,5.43
2022-09-30T01:55:01.717Z,5.45
2022-09-30T02:00:02.240Z,5.32
2022-09-30T02:05:02.064Z,5.42
2022-09-30T02:10:01.285Z,5.19
2022-09-30T02:15:01.349Z,5.61
2022-09-30T02:20:01.392Z,5.74
2022-09-30T02:25:02.243Z,5.81
2022-09-30T02:30:01.725Z,5.79
2022-09-30T02:35:01.861Z,5.87
2022-09-30T02:40:02.218Z,5.89
2022-09-30T02:45:01.616Z,5.84
2022-09-30T02:50:01.471Z,5.93
2022-09-30T02:55:02.067Z,5.77
2022-09-30T03:00:03.408Z,5.72
2022-09-30T03:05:01.798Z,5.51
2022-09-30T03:10:01.367Z,5.35
2022-09-30T03:15:02.194Z,5.28
2022-09-30T03:20:01.765Z,5.07
2022-09-30T03:25:01.464Z,5.08
2022-09-30T03:30:01.774Z,5.1
2022-09-30T03:35:01.456Z,4.98
2022-09-30T03:40:02.238Z,4.91
2022-09-30T03:45:01.323Z,5.09
2022-09-30T03:50:01.485Z,5.36
2022-09-30T03:55:01.435Z,5.43
2022-09-30T04:00:01.661Z,5.41
2022-09-30T04:05:02.112Z,5.42
2022-09-30T04:10:02.194Z,5.53
2022-09-30T04:15:01.628Z,5.62
2022-09-30T04:20:02.017Z,5.28
2022-09-30T04:25:01.848Z,5.12
2022-09-30T04:30:01.651Z,4.89
2022-09-30T04:35:01.443Z,5.03
2022-09-30T04:40:02.185Z,5.09
2022-09-30T04:45:02.082Z,5.08
2022-09-30T04:50:01.574Z,4.98
2022-09-30T04:55:01.450Z,4.97
2022-09-30T05:00:01.344Z,5.08
2022-09-30T05:05:01.814Z,5.16
2022-09-30T05:10:01.305Z,5.15
2022-09-30T05:15:01.894Z,5.17
2022-09-30T05:20:01.398Z,5.16
2022-09-30T05:25:01.419Z,5.18
2022-09-30T05:30:01.999Z,5
2022-09-30T05:35:01.417Z,4.83
2022-09-30T05:40:01.997Z,4.82
2022-09-30T05:45:01.376Z,4.72
2022-09-30T05:50:01.835Z,4.88
2022-09-30T05:55:01.693Z,5.07
2022-09-30T06:00:02.168Z,5.22
2022-09-30T06:05:01.518Z,5.33
2022-09-30T06:10:01.530Z,5.42
2022-09-30T06:15:01.395Z,5.31
2022-09-30T06:20:01.928Z,5.37
2022-09-30T06:25:01.668Z,5.61
2022-09-30T06:30:01.952Z,5.65
2022-09-30T06:35:01.993Z,5.8
2022-09-30T06:40:01.975Z,5.92
2022-09-30T06:45:01.561Z,6.08
2022-09-30T06:50:01.536Z,6.25
2022-09-30T06:55:01.850Z,6.27
2022-09-30T07:00:01.972Z,6.5
2022-09-30T07:05:02.150Z,6.71
2022-09-30T07:10:01.560Z,6.88
2022-09-30T07:15:02.196Z,7.26
2022-09-30T07:20:01.638Z,7.48
2022-09-30T07:25:02.059Z,7.92
2022-09-30T07:30:12.838Z,8.17
2022-09-30T07:35:02.233Z,8.45
2022-09-30T07:40:02.203Z,8.87
2022-09-30T07:45:01.685Z,9.27
2022-09-30T07:50:01.971Z,9.55
2022-09-30T07:55:02.033Z,9.47
2022-09-30T08:00:17.041Z,9.49
2022-09-30T08:05:01.699Z,9.55
2022-09-30T08:10:01.769Z,9.4
2022-09-30T08:15:02.123Z,9.69
2022-09-30T08:20:01.761Z,9.99
2022-09-30T08:25:01.605Z,10.26
2022-09-30T08:30:04.792Z,10.52
2022-09-30T08:35:01.722Z,10.78
2022-09-30T08:40:02.007Z,11.02
2022-09-30T08:45:02.195Z,11.39
2022-09-30T08:50:02.222Z,11.76
2022-09-30T08:55:01.572Z,11.74
2022-09-30T09:00:01.300Z,11.78
2022-09-30T09:05:01.730Z,12.13
2022-09-30T09:10:02.208Z,12.13
2022-09-30T09:15:01.477Z,12.35
2022-09-30T09:20:02.351Z,12.36
2022-09-30T09:25:01.579Z,12.56
2022-09-30T09:30:01.350Z,12.74
2022-09-30T09:35:01.368Z,13.06
2022-09-30T09:40:07.099Z,13.39
2022-09-30T09:45:01.466Z,13.63
2022-09-30T09:50:01.363Z,13.6
2022-09-30T09:55:01.895Z,13.78
2022-09-30T10:00:02.293Z,14.11
2022-09-30T10:05:01.462Z,14.1
2022-09-30T10:10:02.228Z,14.24
2022-09-30T10:15:01.904Z,14.55
2022-09-30T10:20:01.359Z,14.58
2022-09-30T10:25:01.888Z,14.82
2022-09-30T10:30:01.429Z,14.78
2022-09-30T10:35:01.379Z,14.92
2022-09-30T10:40:01.598Z,14.95
2022-09-30T10:45:01.756Z,15.07
2022-09-30T10:50:02.197Z,15.29
2022-09-30T10:55:01.677Z,15.44
2022-09-30T11:00:01.403Z,15.55
2022-09-30T11:05:01.859Z,15.67
2022-09-30T11:10:01.595Z,15.37
2022-09-30T11:15:01.240Z,15.02
2022-09-30T11:20:01.859Z,14.88
2022-09-30T11:25:01.687Z,14.78
2022-09-30T11:30:02.298Z,14.67
2022-09-30T11:35:01.868Z,14.49
2022-09-30T11:40:02.010Z,14.33
2022-09-30T11:45:01.933Z,14.33
2022-09-30T11:50:01.492Z,14.32
2022-09-30T11:55:01.356Z,14.34
2022-09-30T12:00:02.088Z,14.34
2022-09-30T12:05:01.566Z,14.49
2022-09-30T12:10:01.584Z,14.55
2022-09-30T12:15:01.583Z,14.5
2022-09-30T12:20:02.109Z,14.43
2022-09-30T12:25:01.929Z,14.42
2022-09-30T12:30:01.965Z,14.45
2022-09-30T12:35:01.786Z,14.44
2022-09-30T12:40:01.666Z,14.47
2022-09-30T12:45:01.371Z,14.65
2022-09-30T12:50:01.942Z,14.93
2022-09-30T12:55:01.393Z,15.08
2022-09-30T13:00:01.437Z,15.41
2022-09-30T13:05:02.052Z,15.55
2022-09-30T13:10:02.044Z,15.82
2022-09-30T13:15:01.938Z,15.84
2022-09-30T13:20:01.627Z,15.78
2022-09-30T13:25:02.271Z,15.91
2022-09-30T13:30:01.716Z,16.18
2022-09-30T13:35:01.514Z,16.12
2022-09-30T13:40:02.196Z,15.88
2022-09-30T13:45:01.731Z,15.88
2022-09-30T13:50:01.690Z,15.77
2022-09-30T13:55:01.407Z,15.43
2022-09-30T14:00:02.208Z,15.34
2022-09-30T14:05:01.458Z,15.31
2022-09-30T14:10:06.885Z,15.69
2022-09-30T14:15:01.846Z,15.69
2022-09-30T14:20:01.936Z,15.57
2022-09-30T14:25:02.339Z,15.3
2022-09-30T14:30:01.875Z,15.14
2022-09-30T14:35:01.554Z,15.13
2022-09-30T14:40:01.491Z,15.36
2022-09-30T14:45:01.525Z,15.46
2022-09-30T14:50:01.566Z,15.26
2022-09-30T14:55:01.779Z,15.15
2022-09-30T15:00:01.309Z,15.43
2022-09-30T15:05:02.128Z,15.22
2022-09-30T15:10:01.949Z,15.14
2022-09-30T15:15:01.880Z,14.96
2022-09-30T15:20:01.710Z,14.82
2022-09-30T15:25:01.323Z,14.81
2022-09-30T15:30:01.577Z,14.88
2022-09-30T15:35:01.847Z,14.89
2022-09-30T15:40:01.746Z,14.74
2022-09-30T15:45:02.127Z,14.49
2022-09-30T15:50:01.823Z,14.36
2022-09-30T15:55:01.459Z,14.37
2022-09-30T16:00:01.842Z,14.33
2022-09-30T16:05:01.351Z,14.24
2022-09-30T16:10:02.003Z,14.28
2022-09-30T16:15:01.284Z,14.27
2022-09-30T16:20:02.133Z,14.45
2022-09-30T16:25:01.390Z,14.51
2022-09-30T16:30:01.251Z,14.41
2022-09-30T16:35:01.314Z,14.25
2022-09-30T16:40:01.724Z,14.08
2022-09-30T16:45:01.480Z,13.85
2022-09-30T16:50:01.444Z,13.82
2022-09-30T16:55:02.239Z,13.74
2022-09-30T17:00:02.002Z,13.64
2022-09-30T17:05:01.410Z,13.39
2022-09-30T17:10:01.668Z,13.26
2022-09-30T17:15:01.840Z,13.07
2022-09-30T17:20:01.845Z,13.02
2022-09-30T17:25:01.268Z,13.06
2022-09-30T17:30:01.478Z,12.95
2022-09-30T17:35:01.884Z,12.97
2022-09-30T17:40:01.851Z,13.06
2022-09-30T17:45:01.882Z,12.88
2022-09-30T17:50:01.815Z,12.88
2022-09-30T18:00:01.249Z,12.74
2022-09-30T18:05:01.710Z,12.72
2022-09-30T18:10:01.505Z,12.79
2022-09-30T18:15:02.193Z,12.75
2022-09-30T18:20:01.704Z,12.65
2022-09-30T18:25:01.735Z,12.6
2022-09-30T18:30:01.668Z,12.59
2022-09-30T18:35:01.652Z,12.57
2022-09-30T18:40:01.668Z,12.51
2022-09-30T18:45:01.724Z,12.42
2022-09-30T18:50:01.633Z,12.31
2022-09-30T18:55:01.515Z,12.18
2022-09-30T19:00:01.530Z,12
2022-09-30T19:05:01.762Z,11.82
2022-09-30T19:10:01.972Z,11.71
2022-09-30T19:15:01.772Z,11.6
2022-09-30T19:20:01.765Z,11.49
2022-09-30T19:25:02.076Z,11.52
2022-09-30T19:30:01.392Z,11.6
2022-09-30T19:35:06.081Z,11.7
2022-09-30T19:40:13.924Z,11.76
2022-09-30T19:45:01.419Z,11.78
2022-09-30T19:50:02.081Z,11.9
2022-09-30T19:55:12.520Z,11.97
2022-09-30T20:00:05.133Z,12
2022-09-30T20:05:01.831Z,11.92
2022-09-30T20:10:01.526Z,11.86
2022-09-30T20:15:01.857Z,11.69
2022-09-30T20:20:01.385Z,11.53
2022-09-30T20:25:01.783Z,11.47
2022-09-30T20:30:01.446Z,11.4
2022-09-30T20:35:01.894Z,11.38
2022-09-30T20:40:02.203Z,11.34
2022-09-30T20:45:01.444Z,11.39
2022-09-30T20:50:01.794Z,11.39
2022-09-30T20:55:01.766Z,11.31
2022-09-30T21:00:01.552Z,11.27
2022-09-30T21:05:02.154Z,11.31
2022-09-30T21:10:01.675Z,11.39
2022-09-30T21:15:02.172Z,11.44
2022-09-30T21:20:02.239Z,11.51
2022-09-30T21:25:01.889Z,11.55
2022-09-30T21:30:01.775Z,11.49
2022-09-30T21:35:01.750Z,11.39
2022-09-30T21:40:01.554Z,11.29
2022-09-30T21:45:01.323Z,11.18
2022-09-30T21:50:01.436Z,11.16
2022-09-30T21:55:02.186Z,11.23
2022-09-30T22:00:01.784Z,11.28
2022-09-30T22:05:01.433Z,11.32
2022-09-30T22:10:02.037Z,11.32
2022-09-30T22:15:01.999Z,11.34
2022-09-30T22:20:01.819Z,11.42
2022-09-30T22:25:01.511Z,11.41
2022-09-30T22:30:01.742Z,11.43
2022-09-30T22:35:01.707Z,11.45
2022-09-30T22:40:01.406Z,11.53
2022-09-30T22:45:01.966Z,11.56
2022-09-30T22:50:01.505Z,11.55
2022-09-30T22:55:01.361Z,11.54
2022-09-30T23:00:01.360Z,11.49
2022-09-30T23:05:01.800Z,11.43
2022-09-30T23:10:02.235Z,11.43
2022-09-30T23:15:01.732Z,11.49
2022-09-30T23:20:02.168Z,11.59
2022-09-30T23:25:01.666Z,11.62
2022-09-30T23:30:01.905Z,11.73
2022-09-30T23:35:02.165Z,11.76
2022-09-30T23:40:01.907Z,11.81
2022-09-30T23:45:02.183Z,11.88
2022-09-30T23:50:01.913Z,11.97
2022-09-30T23:55:02.027Z,11.94
